Time;durP1;ratioP1;P1;durP2;ratioP2;P2;SDS_P1;SDS_P2;PMS_P1;PMS_P2;Temp;Humidity;BMP_temperature;BMP_pressure;BME280_temperature;BME280_humidity;BME280_pressure;Samples;Min_cycle;Max_cycle;Signal;HPM_P1;HPM_P2
2022/03/12 00:00:30;;;;;;;8.63;5.43;;;8.10;80.70;;;;;;7387877;19;20143;-72
2022/03/12 00:02:59;;;;;;;8.10;5.73;;;7.90;80.60;;;;;;7389326;19;20155;-72
2022/03/12 00:05:25;;;;;;;8.90;5.90;;;8.00;81.00;;;;;;7386234;19;20127;-73
2022/03/12 00:07:52;;;;;;;9.50;5.77;;;7.90;80.80;;;;;;7387547;19;20139;-73
2022/03/12 00:10:23;;;;;;;8.93;5.23;;;8.10;80.70;;;;;;7389584;19;20130;-73
2022/03/12 00:12:53;;;;;;;8.63;5.80;;;8.20;80.30;;;;;;7388134;19;20137;-72
2022/03/12 00:15:18;;;;;;;10.97;5.70;;;7.90;80.50;;;;;;7388380;19;20152;-73
2022/03/12 00:17:45;;;;;;;8.53;6.07;;;7.90;81.10;;;;;;7386608;19;20205;-73
2022/03/12 00:20:18;;;;;;;9.97;6.63;;;7.70;81.70;;;;;;7387452;19;20266;-73
2022/03/12 00:22:50;;;;;;;13.23;6.40;;;7.70;81.10;;;;;;7390679;19;20158;-71
2022/03/12 00:25:26;;;;;;;8.43;5.67;;;7.80;81.80;;;;;;7390356;19;20159;-72
2022/03/12 00:27:52;;;;;;;10.67;6.33;;;7.90;81.90;;;;;;7386054;19;20613;-72
2022/03/12 00:30:25;;;;;;;11.53;6.27;;;8.10;81.90;;;;;;7387057;19;20131;-72
2022/03/12 00:32:52;;;;;;;10.33;5.77;;;8.20;81.90;;;;;;7386657;19;20131;-73
2022/03/12 00:35:20;;;;;;;10.87;6.47;;;8.40;81.60;;;;;;7386697;19;20156;-72
2022/03/12 00:37:46;;;;;;;8.90;5.57;;;8.50;82.10;;;;;;7386067;19;20146;-73
2022/03/12 00:40:15;;;;;;;10.87;6.10;;;8.40;82.10;;;;;;7390439;19;20141;-72
2022/03/12 00:42:42;;;;;;;8.27;5.67;;;8.30;82.30;;;;;;7388495;19;20134;-72
2022/03/12 00:45:10;;;;;;;10.07;5.80;;;8.60;81.90;;;;;;7385666;19;20165;-72
2022/03/12 00:47:36;;;;;;;11.80;6.60;;;8.60;81.60;;;;;;7386618;19;20713;-72
2022/03/12 00:50:02;;;;;;;9.63;5.80;;;8.60;81.50;;;;;;7386658;19;20146;-72
2022/03/12 00:52:27;;;;;;;10.53;6.23;;;8.40;82.20;;;;;;7385712;19;20434;-72
2022/03/12 00:54:53;;;;;;;9.13;6.00;;;8.30;82.20;;;;;;7388030;19;20582;-73
2022/03/12 00:57:19;;;;;;;9.97;5.80;;;8.20;82.50;;;;;;7386897;19;20134;-71
2022/03/12 00:59:45;;;;;;;9.77;5.70;;;8.00;82.80;;;;;;7386283;19;20127;-72
2022/03/12 01:02:13;;;;;;;8.57;6.13;;;7.90;83.40;;;;;;7387676;19;20298;-72
2022/03/12 01:04:39;;;;;;;9.03;6.33;;;7.80;83.80;;;;;;7387145;19;20138;-72
2022/03/12 01:07:05;;;;;;;12.43;5.63;;;7.70;83.80;;;;;;7385605;19;20150;-72
2022/03/12 01:09:31;;;;;;;9.50;5.70;;;7.90;84.20;;;;;;7387621;19;20131;-73
2022/03/12 01:11:57;;;;;;;7.63;5.43;;;8.20;83.20;;;;;;7385843;19;20135;-73
2022/03/12 01:14:23;;;;;;;8.93;5.87;;;8.00;82.50;;;;;;7385325;19;20133;-72
2022/03/12 01:16:49;;;;;;;8.77;6.17;;;8.00;82.30;;;;;;7385236;19;20472;-72
2022/03/12 01:19:15;;;;;;;10.33;5.80;;;8.20;81.60;;;;;;7386647;19;20503;-73
2022/03/12 01:21:41;;;;;;;8.30;4.97;;;8.20;81.00;;;;;;7385723;19;20127;-73
2022/03/12 01:24:08;;;;;;;9.90;6.13;;;8.30;81.30;;;;;;7389118;19;20590;-72
2022/03/12 01:26:35;;;;;;;8.87;5.60;;;8.40;80.20;;;;;;7383334;19;20142;-73
2022/03/12 01:29:01;;;;;;;9.77;5.90;;;8.50;79.90;;;;;;7384319;19;20203;-73
2022/03/12 01:31:27;;;;;;;8.57;5.37;;;8.50;79.00;;;;;;7385477;19;20138;-73
2022/03/12 01:33:53;;;;;;;9.93;5.23;;;8.50;80.00;;;;;;7384638;19;20167;-74
2022/03/12 01:36:19;;;;;;;9.27;5.50;;;8.30;79.50;;;;;;7384317;19;20605;-72
2022/03/12 01:38:51;;;;;;;8.43;5.30;;;8.30;80.10;;;;;;7383953;19;20472;-72
2022/03/12 01:41:20;;;;;;;6.70;4.90;;;8.30;80.00;;;;;;7384809;19;20146;-72
2022/03/12 01:43:48;;;;;;;7.33;4.87;;;8.10;80.30;;;;;;7387879;19;20139;-72
2022/03/12 01:46:14;;;;;;;7.77;5.37;;;8.10;80.00;;;;;;7382852;19;20614;-72
2022/03/12 01:48:49;;;;;;;8.23;5.33;;;8.20;79.40;;;;;;7390098;19;20145;-73
2022/03/12 01:51:15;;;;;;;8.87;5.67;;;8.20;79.50;;;;;;7385884;19;20133;-72
2022/03/12 01:53:42;;;;;;;8.43;4.97;;;8.20;80.40;;;;;;7384527;19;20391;-73
2022/03/12 01:56:08;;;;;;;6.93;4.97;;;8.10;79.30;;;;;;7385435;19;20137;-71
2022/03/12 01:58:34;;;;;;;6.50;4.50;;;8.20;79.50;;;;;;7385580;19;20640;-72
2022/03/12 02:01:00;;;;;;;7.97;5.60;;;8.20;79.40;;;;;;7384085;19;20153;-73
2022/03/12 02:03:28;;;;;;;8.73;5.13;;;8.30;79.20;;;;;;7383948;19;20139;-72
2022/03/12 02:05:55;;;;;;;6.47;4.90;;;8.30;78.90;;;;;;7382061;19;20173;-72
2022/03/12 02:08:21;;;;;;;11.20;5.47;;;8.40;78.90;;;;;;7385392;19;20133;-72
2022/03/12 02:10:50;;;;;;;7.00;4.83;;;8.30;79.00;;;;;;7386837;19;20131;-72
2022/03/12 02:13:17;;;;;;;8.77;5.10;;;8.30;79.40;;;;;;7383801;19;20670;-72
2022/03/12 02:15:43;;;;;;;6.53;4.60;;;8.30;79.60;;;;;;7383070;19;20130;-72
2022/03/12 02:18:11;;;;;;;8.30;4.77;;;8.10;79.10;;;;;;7384823;19;20134;-73
2022/03/12 02:20:38;;;;;;;7.57;5.00;;;8.00;79.80;;;;;;7384714;19;20130;-72
2022/03/12 02:23:08;;;;;;;11.93;5.37;;;8.10;79.40;;;;;;7384270;19;20666;-72
2022/03/12 02:25:34;;;;;;;10.23;5.10;;;8.20;78.90;;;;;;7382373;19;20569;-71
2022/03/12 02:28:02;;;;;;;8.00;5.17;;;8.30;78.40;;;;;;7381817;19;20186;-72
2022/03/12 02:30:36;;;;;;;8.80;6.03;;;8.20;77.90;;;;;;7383367;19;20148;-73
2022/03/12 02:33:03;;;;;;;13.23;5.07;;;8.20;77.80;;;;;;7382704;19;20130;-71
2022/03/12 02:35:34;;;;;;;9.93;5.60;;;8.20;78.20;;;;;;7384816;19;20119;-72
2022/03/12 02:38:04;;;;;;;8.40;5.10;;;8.30;78.20;;;;;;7382186;19;20127;-73
2022/03/12 02:40:32;;;;;;;7.33;5.07;;;8.20;78.30;;;;;;7383669;19;20131;-72
2022/03/12 02:42:58;;;;;;;9.57;5.40;;;8.20;78.80;;;;;;7383338;19;20892;-72
2022/03/12 02:45:27;;;;;;;8.20;5.37;;;8.20;78.70;;;;;;7383806;19;20171;-72
2022/03/12 02:47:55;;;;;;;8.53;5.33;;;8.30;78.10;;;;;;7383422;19;20159;-72
2022/03/12 02:50:23;;;;;;;10.00;5.10;;;8.20;78.50;;;;;;7387175;19;20469;-72
2022/03/12 02:52:49;;;;;;;8.50;5.43;;;8.00;79.10;;;;;;7391400;19;20761;-73
2022/03/12 02:55:24;;;;;;;8.43;5.50;;;7.90;79.20;;;;;;7389686;19;20149;-73
2022/03/12 02:57:51;;;;;;;8.20;5.13;;;8.00;79.20;;;;;;7392423;19;20161;-73
2022/03/12 03:00:18;;;;;;;8.50;5.37;;;7.80;80.50;;;;;;7390030;19;20130;-71
2022/03/12 03:02:51;;;;;;;9.00;5.40;;;8.00;79.90;;;;;;7395195;19;20131;-72
2022/03/12 03:05:18;;;;;;;8.90;5.23;;;8.00;79.70;;;;;;7389265;19;20158;-72
2022/03/12 03:07:51;;;;;;;10.60;5.60;;;8.20;79.60;;;;;;7389454;19;20127;-71
2022/03/12 03:10:30;;;;;;;9.67;5.13;;;8.20;79.50;;;;;;7389929;19;20900;-73
2022/03/12 03:12:58;;;;;;;7.40;4.90;;;7.60;80.90;;;;;;7391140;19;20194;-72
2022/03/12 03:15:25;;;;;;;8.20;5.10;;;7.40;81.70;;;;;;7388814;19;20130;-72
2022/03/12 03:17:52;;;;;;;10.13;5.53;;;7.30;83.00;;;;;;7388469;19;20131;-71
2022/03/12 03:20:18;;;;;;;10.77;6.13;;;7.50;81.80;;;;;;7390630;19;20141;-72
2022/03/12 03:22:43;;;;;;;8.90;5.03;;;7.40;80.90;;;;;;7390651;19;20505;-71
2022/03/12 03:25:09;;;;;;;7.33;5.50;;;7.40;81.60;;;;;;7392766;19;20147;-72
2022/03/12 03:27:35;;;;;;;10.60;5.07;;;7.50;81.80;;;;;;7389645;19;20131;-72
2022/03/12 03:30:01;;;;;;;8.97;5.37;;;7.80;81.20;;;;;;7385611;19;20224;-71
2022/03/12 03:32:27;;;;;;;10.77;4.90;;;7.90;80.60;;;;;;7389185;19;20135;-72
2022/03/12 03:34:52;;;;;;;9.80;5.43;;;7.90;80.50;;;;;;7388877;19;20145;-71
2022/03/12 03:37:18;;;;;;;8.03;5.50;;;7.90;79.80;;;;;;7388655;19;20130;-73
2022/03/12 03:39:44;;;;;;;7.73;4.97;;;7.80;80.00;;;;;;7388712;19;20131;-72
2022/03/12 03:42:19;;;;;;;8.93;5.83;;;7.70;80.70;;;;;;7390046;19;20139;-72
2022/03/12 03:44:45;;;;;;;10.37;5.27;;;7.60;80.70;;;;;;7390123;19;20138;-73
2022/03/12 03:47:11;;;;;;;8.33;5.10;;;7.70;80.90;;;;;;7387500;19;20845;-72
2022/03/12 03:49:37;;;;;;;7.17;5.30;;;7.60;81.20;;;;;;7390459;19;20138;-72
2022/03/12 03:52:03;;;;;;;7.13;4.77;;;7.60;81.40;;;;;;7388030;19;20131;-73
2022/03/12 03:54:31;;;;;;;10.23;5.23;;;7.30;81.80;;;;;;7388250;19;20142;-72
2022/03/12 03:56:57;;;;;;;10.00;5.40;;;7.50;82.00;;;;;;7388942;19;20166;-73
2022/03/12 03:59:22;;;;;;;8.17;4.67;;;7.70;81.40;;;;;;7388047;19;20130;-71
2022/03/12 04:01:50;;;;;;;7.00;4.90;;;7.80;80.90;;;;;;7388659;19;20155;-72
2022/03/12 04:04:17;;;;;;;7.80;5.23;;;8.00;80.70;;;;;;7391774;19;20151;-71
2022/03/12 04:06:42;;;;;;;9.77;5.47;;;8.00;80.40;;;;;;7384418;19;20141;-71
2022/03/12 04:09:09;;;;;;;11.23;5.57;;;8.10;80.00;;;;;;7388951;19;20831;-72
2022/03/12 04:11:35;;;;;;;8.27;4.97;;;8.00;80.30;;;;;;7387637;19;20671;-71
2022/03/12 04:14:04;;;;;;;6.77;4.73;;;8.00;80.30;;;;;;7390034;19;20138;-72
2022/03/12 04:16:31;;;;;;;7.27;4.70;;;7.80;80.60;;;;;;7387097;19;20578;-71
2022/03/12 04:18:57;;;;;;;7.90;5.50;;;7.80;81.10;;;;;;7391682;19;20147;-71
2022/03/12 04:21:23;;;;;;;7.70;5.00;;;7.80;81.30;;;;;;7388585;19;20142;-72
2022/03/12 04:23:49;;;;;;;7.93;4.90;;;7.70;80.90;;;;;;7389307;19;20507;-73
2022/03/12 04:26:16;;;;;;;7.90;5.00;;;7.30;81.70;;;;;;7385235;19;20146;-72
2022/03/12 04:28:42;;;;;;;8.13;5.10;;;7.10;82.40;;;;;;7385761;19;20180;-73
2022/03/12 04:31:08;;;;;;;9.00;5.47;;;7.30;82.60;;;;;;7387323;19;20804;-73
2022/03/12 04:33:36;;;;;;;10.00;4.93;;;7.50;81.60;;;;;;7387114;19;20131;-72
2022/03/12 04:36:03;;;;;;;7.33;4.77;;;7.50;81.60;;;;;;7390301;19;20137;-72
2022/03/12 04:38:29;;;;;;;9.07;5.50;;;7.30;81.80;;;;;;7386318;19;20173;-71
2022/03/12 04:40:56;;;;;;;9.07;5.20;;;7.20;82.40;;;;;;7388116;19;20466;-72
2022/03/12 04:43:26;;;;;;;6.10;4.70;;;7.40;82.50;;;;;;7388195;19;20564;-73
2022/03/12 04:45:52;;;;;;;7.90;4.70;;;7.40;82.70;;;;;;7384740;19;20154;-72
2022/03/12 04:48:21;;;;;;;8.10;5.23;;;7.20;82.60;;;;;;7387819;19;20119;-72
2022/03/12 04:50:48;;;;;;;6.60;4.67;;;7.40;82.80;;;;;;7387218;19;20579;-71
2022/03/12 04:53:15;;;;;;;8.90;5.23;;;7.30;83.00;;;;;;7390466;19;20693;-72
2022/03/12 04:55:42;;;;;;;9.07;5.17;;;7.40;83.20;;;;;;7386298;19;20209;-72
2022/03/12 04:58:09;;;;;;;9.53;5.07;;;7.50;82.80;;;;;;7388200;19;20475;-72
2022/03/12 05:00:38;;;;;;;8.10;5.00;;;7.60;82.60;;;;;;7386862;19;20130;-72
2022/03/12 05:03:15;;;;;;;8.33;4.80;;;7.70;82.40;;;;;;7386131;19;20138;-71
2022/03/12 05:05:46;;;;;;;7.70;5.27;;;7.60;82.60;;;;;;7384982;19;20138;-71
2022/03/12 05:08:17;;;;;;;9.37;5.20;;;7.60;82.30;;;;;;7385630;19;20146;-72
2022/03/12 05:10:49;;;;;;;10.20;5.30;;;7.70;82.20;;;;;;7387720;19;20205;-71
2022/03/12 05:13:22;;;;;;;10.20;5.30;;;7.70;82.50;;;;;;7385288;19;20137;-73
2022/03/12 05:15:52;;;;;;;9.07;5.47;;;7.80;82.00;;;;;;7386584;19;20558;-71
2022/03/12 05:18:19;;;;;;;7.17;5.07;;;7.80;81.70;;;;;;7385457;19;20134;-72
2022/03/12 05:20:49;;;;;;;7.33;5.03;;;7.80;81.50;;;;;;7386429;19;20472;-72
2022/03/12 05:23:36;;;;;;;9.83;5.57;;;7.70;81.20;;;;;;7385171;19;20175;-71
2022/03/12 05:26:02;;;;;;;8.47;5.33;;;7.70;81.70;;;;;;7384583;19;20139;-71
2022/03/12 05:28:32;;;;;;;9.83;4.77;;;7.70;82.00;;;;;;7382401;19;20188;-72
2022/03/12 05:31:00;;;;;;;6.50;4.67;;;7.70;82.10;;;;;;7384351;19;20536;-71
2022/03/12 05:33:27;;;;;;;8.27;5.30;;;7.70;82.20;;;;;;7386675;19;20139;-71
2022/03/12 05:35:54;;;;;;;8.47;4.83;;;7.70;82.10;;;;;;7385589;19;20142;-72
2022/03/12 05:38:22;;;;;;;8.97;5.03;;;7.50;82.10;;;;;;7386468;19;20147;-72
2022/03/12 05:40:50;;;;;;;9.60;5.23;;;7.40;82.70;;;;;;7384572;19;20146;-71
2022/03/12 05:43:17;;;;;;;8.63;5.30;;;7.40;82.40;;;;;;7386372;19;20179;-72
2022/03/12 05:45:51;;;;;;;10.93;5.00;;;7.50;82.10;;;;;;7383465;19;20223;-72
2022/03/12 05:48:18;;;;;;;8.23;4.73;;;7.60;81.80;;;;;;7385293;19;20133;-72
2022/03/12 05:50:47;;;;;;;8.60;5.03;;;7.70;82.00;;;;;;7386168;19;20149;-72
2022/03/12 05:53:18;;;;;;;7.40;5.13;;;7.70;82.20;;;;;;7389107;19;20150;-72
2022/03/12 05:55:45;;;;;;;10.53;5.60;;;7.70;82.00;;;;;;7384084;19;20679;-72
2022/03/12 05:58:15;;;;;;;10.03;5.53;;;7.70;81.70;;;;;;7389009;19;20126;-72
2022/03/12 06:00:41;;;;;;;8.13;4.90;;;7.80;81.80;;;;;;7384856;19;20954;-72
2022/03/12 06:03:10;;;;;;;7.80;5.13;;;7.70;82.50;;;;;;7385287;19;20676;-73
2022/03/12 06:05:40;;;;;;;10.13;5.17;;;7.70;81.40;;;;;;7385021;19;20158;-72
2022/03/12 06:08:07;;;;;;;7.33;5.00;;;7.70;81.20;;;;;;7384573;19;20869;-71
2022/03/12 06:10:34;;;;;;;6.33;4.47;;;7.80;81.10;;;;;;7384177;19;20936;-72
2022/03/12 06:13:01;;;;;;;8.73;4.90;;;7.80;80.90;;;;;;7383083;19;20163;-71
2022/03/12 06:15:27;;;;;;;7.20;4.13;;;7.60;81.10;;;;;;7383569;19;20245;-72
2022/03/12 06:17:53;;;;;;;8.87;5.27;;;7.70;81.10;;;;;;7384432;19;20131;-72
2022/03/12 06:20:21;;;;;;;8.50;5.00;;;7.80;80.50;;;;;;7382754;19;20134;-72
2022/03/12 06:22:51;;;;;;;6.23;4.33;;;7.90;80.50;;;;;;7383867;19;20501;-72
2022/03/12 06:25:18;;;;;;;6.73;4.53;;;7.80;80.50;;;;;;7380728;19;20127;-71
2022/03/12 06:27:53;;;;;;;11.97;7.00;;;7.80;80.60;;;;;;7383500;19;20154;-72
2022/03/12 06:30:18;;;;;;;8.53;5.93;;;7.90;80.20;;;;;;7384884;19;20660;-71
2022/03/12 06:32:44;;;;;;;10.37;5.83;;;7.60;79.60;;;;;;7383439;19;20154;-71
2022/03/12 06:35:12;;;;;;;9.43;5.20;;;7.60;81.10;;;;;;7382958;19;20123;-71
2022/03/12 06:37:39;;;;;;;10.47;5.23;;;7.80;79.90;;;;;;7384229;19;20605;-72
2022/03/12 06:40:08;;;;;;;7.93;5.27;;;7.90;79.40;;;;;;7383828;19;20155;-71
2022/03/12 06:42:35;;;;;;;9.20;4.77;;;7.90;79.40;;;;;;7384806;19;20149;-71
2022/03/12 06:45:01;;;;;;;9.00;4.90;;;7.90;79.80;;;;;;7384130;19;20141;-72
2022/03/12 06:47:31;;;;;;;8.07;5.00;;;7.90;79.70;;;;;;7382482;19;20222;-71
2022/03/12 06:50:00;;;;;;;9.70;4.80;;;7.90;80.30;;;;;;7383553;19;20130;-73
2022/03/12 06:52:28;;;;;;;6.63;4.73;;;8.00;80.50;;;;;;7384981;19;20491;-71
2022/03/12 06:54:55;;;;;;;7.93;4.97;;;8.00;79.70;;;;;;7383014;19;20142;-72
2022/03/12 06:57:21;;;;;;;7.40;4.73;;;8.00;79.60;;;;;;7383850;19;20202;-72
2022/03/12 06:59:47;;;;;;;7.20;4.63;;;7.90;80.70;;;;;;7382858;19;20141;-71
2022/03/12 07:02:13;;;;;;;10.27;4.77;;;7.90;80.00;;;;;;7383845;19;20127;-72
2022/03/12 07:04:39;;;;;;;9.17;5.00;;;8.10;80.60;;;;;;7382119;19;20151;-71
2022/03/12 07:07:05;;;;;;;8.47;5.30;;;8.10;80.00;;;;;;7383470;19;20459;-72
2022/03/12 07:09:31;;;;;;;8.40;4.73;;;8.30;79.80;;;;;;7383602;19;20138;-72
2022/03/12 07:11:58;;;;;;;8.73;5.30;;;8.20;79.50;;;;;;7382423;19;20552;-72
2022/03/12 07:14:27;;;;;;;7.03;4.93;;;8.30;79.50;;;;;;7381635;19;20175;-74
2022/03/12 07:16:54;;;;;;;13.47;4.63;;;8.30;79.60;;;;;;7384511;19;20510;-73
2022/03/12 07:19:22;;;;;;;8.70;5.00;;;8.30;79.40;;;;;;7386873;19;20139;-73
2022/03/12 07:21:49;;;;;;;7.73;4.87;;;8.30;79.70;;;;;;7383629;19;20218;-72
2022/03/12 07:24:16;;;;;;;6.13;4.63;;;8.30;79.50;;;;;;7381939;19;20892;-71
2022/03/12 07:26:43;;;;;;;8.87;5.30;;;8.30;79.40;;;;;;7380504;19;20661;-72
2022/03/12 07:29:08;;;;;;;8.13;5.10;;;8.30;79.40;;;;;;7379826;19;20166;-72
2022/03/12 07:31:37;;;;;;;7.83;4.67;;;8.40;79.30;;;;;;7381197;19;20146;-71
2022/03/12 07:34:03;;;;;;;8.87;5.67;;;8.50;80.00;;;;;;7382502;19;20155;-73
2022/03/12 07:36:29;;;;;;;7.37;4.97;;;8.40;79.90;;;;;;7383678;19;20223;-72
2022/03/12 07:38:58;;;;;;;7.90;5.17;;;8.50;79.00;;;;;;7391042;19;20135;-71
2022/03/12 07:41:25;;;;;;;8.93;5.40;;;8.40;79.50;;;;;;7391808;19;20143;-73
2022/03/12 07:43:53;;;;;;;7.03;4.83;;;8.40;79.00;;;;;;7390529;19;20151;-72
2022/03/12 07:46:21;;;;;;;8.70;5.30;;;8.50;78.60;;;;;;7387787;19;20154;-72
2022/03/12 07:48:46;;;;;;;6.70;4.60;;;8.50;78.20;;;;;;7390223;19;20143;-72
2022/03/12 07:51:13;;;;;;;7.60;4.73;;;8.50;78.00;;;;;;7391627;19;20206;-71
2022/03/12 07:53:39;;;;;;;7.77;4.80;;;8.40;77.70;;;;;;7390609;19;20180;-71
2022/03/12 07:56:07;;;;;;;8.17;5.00;;;8.40;77.60;;;;;;7389067;19;20155;-72
2022/03/12 07:58:33;;;;;;;6.40;4.80;;;8.40;77.70;;;;;;7391317;19;20526;-72
2022/03/12 08:00:59;;;;;;;7.47;4.70;;;8.40;77.60;;;;;;7389205;19;20146;-72
2022/03/12 08:03:26;;;;;;;9.53;5.20;;;8.40;77.70;;;;;;7387653;19;20151;-72
2022/03/12 08:05:52;;;;;;;9.50;5.00;;;8.40;78.30;;;;;;7391131;19;20139;-71
2022/03/12 08:08:18;;;;;;;7.93;5.40;;;8.50;78.00;;;;;;7390545;19;20178;-72
2022/03/12 08:13:29;;;;;;;7.87;5.10;;;8.50;77.60;;;;;;7389058;19;20130;-72
2022/03/12 08:15:55;;;;;;;6.50;4.70;;;8.50;77.70;;;;;;7387431;19;20270;-74
2022/03/12 08:18:22;;;;;;;8.90;4.80;;;8.60;77.90;;;;;;7389145;19;20139;-72
2022/03/12 08:20:50;;;;;;;8.73;5.40;;;8.70;77.60;;;;;;7389270;19;20143;-72
2022/03/12 08:23:16;;;;;;;8.00;5.27;;;8.70;77.70;;;;;;7386461;19;20130;-72
2022/03/12 08:25:42;;;;;;;7.10;4.90;;;8.80;78.00;;;;;;7385696;19;20165;-73
2022/03/12 08:28:09;;;;;;;8.87;5.40;;;8.90;77.90;;;;;;7389839;19;20181;-73
2022/03/12 08:30:36;;;;;;;8.20;5.23;;;9.00;77.00;;;;;;7387537;19;20138;-71
2022/03/12 08:33:02;;;;;;;7.67;4.83;;;9.00;77.20;;;;;;7386526;19;20134;-72
2022/03/12 08:35:28;;;;;;;8.93;5.30;;;9.00;77.10;;;;;;7387371;19;20882;-72
2022/03/12 08:37:54;;;;;;;9.53;5.57;;;9.10;77.70;;;;;;7385863;19;20448;-73
2022/03/12 08:40:20;;;;;;;10.20;6.23;;;9.20;77.10;;;;;;7388644;19;20138;-72
2022/03/12 08:42:46;;;;;;;9.07;5.87;;;9.30;77.00;;;;;;7388324;19;20150;-73
2022/03/12 08:45:12;;;;;;;8.90;5.73;;;9.30;76.90;;;;;;7389068;19;20163;-74
2022/03/12 08:47:39;;;;;;;8.53;6.10;;;9.40;76.70;;;;;;7387979;19;20602;-73
2022/03/12 08:50:09;;;;;;;11.47;7.13;;;9.50;76.80;;;;;;7387494;19;20154;-74
2022/03/12 08:52:36;;;;;;;10.77;5.63;;;9.60;76.40;;;;;;7388188;19;20154;-73
2022/03/12 08:55:03;;;;;;;11.10;5.63;;;9.70;76.60;;;;;;7387125;19;20178;-73
2022/03/12 08:57:29;;;;;;;8.70;6.10;;;9.70;76.80;;;;;;7386660;19;20170;-72
2022/03/12 08:59:55;;;;;;;10.07;5.80;;;9.80;76.10;;;;;;7387198;19;20142;-72
2022/03/12 09:02:21;;;;;;;9.80;5.73;;;9.80;76.10;;;;;;7390069;19;20142;-73
2022/03/12 09:04:47;;;;;;;8.50;5.37;;;9.80;76.30;;;;;;7389022;19;20142;-73
2022/03/12 09:07:13;;;;;;;8.47;5.37;;;9.90;76.10;;;;;;7384528;19;20151;-75
2022/03/12 09:09:39;;;;;;;10.23;5.83;;;10.00;75.70;;;;;;7385165;19;20143;-74
2022/03/12 09:12:05;;;;;;;9.63;6.33;;;10.00;75.90;;;;;;7388477;19;20143;-74
2022/03/12 09:14:34;;;;;;;9.53;6.13;;;10.20;75.90;;;;;;7389382;19;20606;-75
2022/03/12 09:17:02;;;;;;;8.87;6.13;;;10.30;75.40;;;;;;7388815;19;20666;-74
2022/03/12 09:19:28;;;;;;;11.37;5.80;;;10.40;75.40;;;;;;7385219;19;20138;-73
2022/03/12 09:21:56;;;;;;;8.33;5.67;;;10.40;76.30;;;;;;7390177;19;20142;-77
2022/03/12 09:24:22;;;;;;;10.67;5.87;;;10.50;75.50;;;;;;7389091;19;20236;-76
2022/03/12 09:26:48;;;;;;;9.30;6.00;;;10.70;75.70;;;;;;7384772;19;20142;-76
2022/03/12 09:29:14;;;;;;;9.03;5.80;;;10.80;75.10;;;;;;7389804;19;20570;-78
2022/03/12 09:31:40;;;;;;;10.60;6.40;;;10.90;75.30;;;;;;7390698;19;20168;-78
2022/03/12 09:34:06;;;;;;;10.27;6.37;;;11.00;74.20;;;;;;7390170;19;20264;-77
2022/03/12 09:36:33;;;;;;;10.37;6.60;;;11.00;75.00;;;;;;7387119;19;20198;-76
2022/03/12 09:38:59;;;;;;;10.20;6.53;;;10.90;74.80;;;;;;7389112;19;20131;-75
2022/03/12 09:41:28;;;;;;;12.13;7.03;;;10.90;75.10;;;;;;7386757;19;20235;-76
2022/03/12 09:43:54;;;;;;;10.10;5.97;;;10.90;75.40;;;;;;7384644;19;20154;-79
2022/03/12 09:46:19;;;;;;;9.27;6.77;;;11.00;75.30;;;;;;7386310;19;20493;-75
2022/03/12 09:48:45;;;;;;;11.13;6.83;;;11.10;75.20;;;;;;7388828;19;20130;-76
2022/03/12 09:51:11;;;;;;;10.60;7.00;;;11.20;74.90;;;;;;7382563;19;20130;-79
2022/03/12 09:53:37;;;;;;;11.20;6.17;;;11.30;75.00;;;;;;7385497;19;20139;-84
2022/03/12 09:56:04;;;;;;;11.27;6.60;;;11.30;74.80;;;;;;7380603;19;20234;-82
2022/03/12 09:58:30;;;;;;;10.50;6.40;;;11.50;74.90;;;;;;7380636;19;20138;-80
2022/03/12 10:00:56;;;;;;;11.53;7.03;;;11.60;74.70;;;;;;7379607;19;20171;-77
2022/03/12 10:03:22;;;;;;;11.37;7.27;;;11.70;74.70;;;;;;7378364;19;21049;-77
2022/03/12 10:05:48;;;;;;;10.90;6.33;;;11.70;74.70;;;;;;7380817;19;20213;-76
2022/03/12 10:08:13;;;;;;;10.90;7.10;;;11.80;74.60;;;;;;7385048;19;20146;-80
2022/03/12 10:10:39;;;;;;;12.13;7.07;;;11.80;74.70;;;;;;7389752;19;20158;-76
2022/03/12 10:13:05;;;;;;;12.20;8.07;;;11.80;74.90;;;;;;7389645;19;20146;-77
2022/03/12 10:15:32;;;;;;;9.73;7.00;;;11.90;75.10;;;;;;7390354;19;20139;-79
2022/03/12 10:17:59;;;;;;;11.63;6.33;;;11.90;75.50;;;;;;7389331;19;20146;-78
2022/03/12 10:20:25;;;;;;;10.17;6.33;;;12.10;74.80;;;;;;7386334;19;20138;-80
2022/03/12 10:22:54;;;;;;;12.33;7.03;;;12.10;75.00;;;;;;7387851;19;20149;-77
2022/03/12 10:25:20;;;;;;;12.30;7.20;;;12.10;75.50;;;;;;7388589;19;20141;-76
2022/03/12 10:27:45;;;;;;;9.83;6.80;;;12.30;75.00;;;;;;7387399;19;20189;-76
2022/03/12 10:30:12;;;;;;;11.77;7.00;;;12.40;74.80;;;;;;7386890;19;20146;-81
2022/03/12 10:32:47;;;;;;;10.73;6.93;;;12.40;74.80;;;;;;7389677;19;20579;-76
2022/03/12 10:35:19;;;;;;;13.00;7.03;;;12.40;74.80;;;;;;7386881;19;20166;-77
2022/03/12 10:37:47;;;;;;;15.00;8.00;;;12.50;75.70;;;;;;7387113;19;20130;-77
2022/03/12 10:40:22;;;;;;;11.30;7.70;;;12.50;76.00;;;;;;7386266;19;20150;-77
2022/03/12 10:43:02;;;;;;;11.17;7.53;;;12.80;74.80;;;;;;7391460;19;20141;-80
2022/03/12 10:45:30;;;;;;;12.93;7.83;;;12.80;74.90;;;;;;7387414;19;20146;-76
2022/03/12 10:47:58;;;;;;;13.10;7.57;;;12.70;75.40;;;;;;7390272;19;20135;-79
2022/03/12 10:50:39;;;;;;;11.27;6.87;;;12.90;76.50;;;;;;7388790;19;20174;-80
2022/03/12 10:53:09;;;;;;;11.73;7.77;;;13.10;75.40;;;;;;7388454;19;20142;-85
2022/03/12 10:55:40;;;;;;;12.50;7.03;;;13.00;75.40;;;;;;7390634;19;20150;-81
2022/03/12 10:58:12;;;;;;;13.30;7.83;;;13.10;74.90;;;;;;7388333;19;20450;-81
2022/03/12 11:00:56;;;;;;;13.07;7.80;;;13.10;74.60;;;;;;7389545;19;20479;-77
2022/03/12 11:03:24;;;;;;;12.83;7.53;;;13.00;75.40;;;;;;7389237;19;20467;-78
2022/03/12 11:05:55;;;;;;;10.63;6.77;;;13.00;76.60;;;;;;7385084;19;20147;-81
2022/03/12 11:08:23;;;;;;;14.03;7.40;;;13.10;76.90;;;;;;7387284;19;20142;-80
2022/03/12 11:10:59;;;;;;;12.87;7.50;;;13.30;76.30;;;;;;7381030;19;20630;-77
2022/03/12 11:13:43;;;;;;;10.87;7.20;;;13.40;76.70;;;;;;7393815;19;20165;-80
2022/03/12 11:16:27;;;;;;;11.17;7.20;;;13.50;77.00;;;;;;7385937;19;20127;-78
2022/03/12 11:18:52;;;;;;;11.93;7.17;;;13.40;77.70;;;;;;7384696;19;20161;-78
2022/03/12 11:21:37;;;;;;;12.97;7.33;;;13.30;78.50;;;;;;7386283;19;20155;-78
2022/03/12 11:24:27;;;;;;;9.73;6.67;;;13.50;80.20;;;;;;7393015;19;20486;-78
2022/03/12 11:26:58;;;;;;;10.10;6.37;;;13.70;80.10;;;;;;7388589;19;20597;-77
2022/03/12 11:29:28;;;;;;;10.10;6.87;;;13.90;80.00;;;;;;7388693;19;20181;-78
2022/03/12 11:32:04;;;;;;;13.32;6.72;;;14.00;79.70;;;;;;7392286;19;20146;-79
2022/03/12 11:34:38;;;;;;;10.37;6.30;;;13.90;79.80;;;;;;7392627;19;20165;-78
2022/03/12 11:37:08;;;;;;;9.90;6.43;;;13.90;79.20;;;;;;7392225;19;20134;-78
2022/03/12 11:39:43;;;;;;;10.97;6.20;;;14.00;79.40;;;;;;7388095;19;20162;-79
2022/03/12 11:42:27;;;;;;;11.37;7.13;;;14.00;80.00;;;;;;7388414;19;20126;-78
2022/03/12 11:44:59;;;;;;;9.53;6.60;;;14.10;79.60;;;;;;7390247;19;20126;-78
2022/03/12 11:47:28;;;;;;;9.55;6.47;;;14.10;80.10;;;;;;7389455;19;20486;-79
2022/03/12 11:49:57;;;;;;;9.37;6.60;;;14.20;79.40;;;;;;7389977;19;20135;-77
2022/03/12 11:52:24;;;;;;;10.87;6.50;;;14.20;79.30;;;;;;7391941;19;20560;-77
2022/03/12 11:54:54;;;;;;;8.80;6.27;;;14.40;78.50;;;;;;7394254;19;20177;-78
2022/03/12 11:57:23;;;;;;;11.03;6.93;;;14.30;79.00;;;;;;7390128;19;20138;-79
2022/03/12 11:59:51;;;;;;;12.38;6.80;;;14.30;79.90;;;;;;7389599;19;20142;-79
2022/03/12 12:02:23;;;;;;;8.88;6.03;;;14.40;79.60;;;;;;7391381;19;20160;-76
2022/03/12 12:04:52;;;;;;;7.93;5.57;;;14.50;80.50;;;;;;7389967;19;20612;-79
2022/03/12 12:07:18;;;;;;;8.68;5.43;;;14.60;79.80;;;;;;7389737;19;20583;-78
2022/03/12 12:09:45;;;;;;;8.40;5.63;;;14.60;81.00;;;;;;7394951;19;20127;-77
2022/03/12 12:12:13;;;;;;;8.48;6.10;;;14.60;80.90;;;;;;7389669;19;20150;-78
2022/03/12 12:14:43;;;;;;;8.52;5.63;;;14.80;80.20;;;;;;7394343;19;20151;-77
2022/03/12 12:17:11;;;;;;;8.52;5.75;;;14.80;80.90;;;;;;7389001;19;20130;-76
2022/03/12 12:19:37;;;;;;;8.10;6.13;;;14.80;81.20;;;;;;7391015;19;20729;-77
2022/03/12 12:22:04;;;;;;;8.77;5.40;;;15.00;80.40;;;;;;7390706;19;20139;-77
2022/03/12 12:24:33;;;;;;;10.15;7.07;;;14.90;80.60;;;;;;7391308;19;20192;-78
2022/03/12 12:27:02;;;;;;;7.43;5.50;;;15.00;80.90;;;;;;7385570;19;20137;-79
2022/03/12 12:29:52;;;;;;;12.48;7.43;;;14.90;80.20;;;;;;7388834;19;20227;-77
2022/03/12 12:32:24;;;;;;;11.60;6.38;;;14.90;79.60;;;;;;7387164;19;20154;-79
2022/03/12 12:35:11;;;;;;;9.82;6.18;;;14.90;79.80;;;;;;7390724;19;20143;-80
2022/03/12 12:38:02;;;;;;;9.00;5.85;;;15.00;79.60;;;;;;7391056;19;20206;-77
2022/03/12 12:40:41;;;;;;;11.35;5.78;;;15.10;79.50;;;;;;7387670;19;20138;-76
2022/03/12 12:43:10;;;;;;;9.68;6.18;;;15.20;79.80;;;;;;7389741;19;20130;-77
2022/03/12 12:45:56;;;;;;;6.18;4.97;;;15.10;80.40;;;;;;7386469;19;20456;-78
2022/03/12 12:48:51;;;;;;;8.77;5.90;;;15.10;82.40;;;;;;7387108;19;20130;-76
2022/03/12 12:51:22;;;;;;;8.63;6.00;;;15.00;82.80;;;;;;7387907;19;20617;-77
2022/03/12 12:53:53;;;;;;;8.57;5.53;;;14.90;82.70;;;;;;7389898;19;20142;-78
2022/03/12 12:56:26;;;;;;;8.63;5.80;;;14.80;83.30;;;;;;7388213;19;20138;-76
2022/03/12 12:58:52;;;;;;;8.73;5.85;;;15.20;82.30;;;;;;7389839;19;20146;-78